createdAt,value
2023-04-11T00:00:56.393Z,11.77
2023-04-11T00:03:23.703Z,11.85
2023-04-11T00:05:50.657Z,12.27
2023-04-11T00:08:18.001Z,13.80
2023-04-11T00:10:45.847Z,13.55
2023-04-11T00:13:12.815Z,11.80
2023-04-11T00:15:39.870Z,7.47
2023-04-11T00:18:07.395Z,9.13
2023-04-11T00:20:34.383Z,8.40
2023-04-11T00:23:01.431Z,7.60
2023-04-11T00:25:30.088Z,10.82
2023-04-11T00:27:57.578Z,7.05
2023-04-11T00:30:24.820Z,7.00
2023-04-11T00:32:51.723Z,9.02
2023-04-11T00:35:19.279Z,8.80
2023-04-11T00:37:47.041Z,6.68
2023-04-11T00:40:16.240Z,6.63
2023-04-11T00:42:43.185Z,7.25
2023-04-11T00:45:10.874Z,6.28
2023-04-11T00:47:37.970Z,7.93
2023-04-11T00:50:05.362Z,7.65
2023-04-11T00:52:32.839Z,8.07
2023-04-11T00:55:02.917Z,8.02
2023-04-11T00:57:30.929Z,7.18
2023-04-11T00:59:59.210Z,7.75
2023-04-11T01:02:26.721Z,9.50
2023-04-11T01:04:54.152Z,10.10
2023-04-11T01:07:23.071Z,7.15
2023-04-11T01:09:51.299Z,10.00
2023-04-11T01:12:18.854Z,10.57
2023-04-11T01:14:47.839Z,11.38
2023-04-11T01:17:15.652Z,13.45
2023-04-11T01:19:42.957Z,19.52
2023-04-11T01:22:12.988Z,14.32
2023-04-11T01:24:40.492Z,14.55
2023-04-11T01:27:07.952Z,18.00
2023-04-11T01:29:34.837Z,11.95
2023-04-11T01:32:02.186Z,12.00
2023-04-11T01:34:30.596Z,10.98
2023-04-11T01:36:57.566Z,11.07
2023-04-11T01:39:24.532Z,12.70
2023-04-11T01:41:53.702Z,10.43
2023-04-11T01:44:21.129Z,13.38
2023-04-11T01:46:48.245Z,11.45
2023-04-11T01:49:15.736Z,12.35
2023-04-11T01:51:43.195Z,13.82
2023-04-11T01:54:09.991Z,9.75
2023-04-11T01:56:36.829Z,9.75
2023-04-11T01:59:04.554Z,12.13
2023-04-11T02:01:32.119Z,11.35
2023-04-11T02:03:59.307Z,11.80
2023-04-11T02:06:27.537Z,10.90
2023-04-11T02:08:55.249Z,9.27
2023-04-11T02:11:22.314Z,10.77
2023-04-11T02:13:49.214Z,9.95
2023-04-11T02:16:17.990Z,13.18
2023-04-11T02:18:45.877Z,10.30
2023-04-11T02:21:12.958Z,8.95
2023-04-11T02:23:39.790Z,7.47
2023-04-11T02:26:07.106Z,8.95
2023-04-11T02:28:34.310Z,7.47
2023-04-11T02:31:02.154Z,7.55
2023-04-11T02:33:29.391Z,7.63
2023-04-11T02:35:56.365Z,7.22
2023-04-11T02:38:23.689Z,8.25
2023-04-11T02:40:50.530Z,7.60
2023-04-11T02:43:17.387Z,8.75
2023-04-11T02:45:44.268Z,7.30
2023-04-11T02:48:11.159Z,7.05
2023-04-11T02:50:40.934Z,7.40
2023-04-11T02:53:08.502Z,7.38
2023-04-11T02:55:35.330Z,7.00
2023-04-11T02:58:02.378Z,5.90
2023-04-11T03:00:29.306Z,9.70
2023-04-11T03:02:56.870Z,7.45
2023-04-11T03:05:23.792Z,8.38
2023-04-11T03:07:50.858Z,8.93
2023-04-11T03:10:17.802Z,9.90
2023-04-11T03:12:45.306Z,6.30
2023-04-11T03:15:15.240Z,6.53
2023-04-11T03:17:42.271Z,9.85
2023-04-11T03:20:11.800Z,9.27
2023-04-11T03:22:39.242Z,9.10
2023-04-11T03:28:05.539Z,11.95
2023-04-11T03:30:33.055Z,6.40
2023-04-11T03:33:00.953Z,9.73
2023-04-11T03:35:28.867Z,9.18
2023-04-11T03:37:55.638Z,7.85
2023-04-11T03:40:23.013Z,15.05
2023-04-11T03:42:50.561Z,12.88
2023-04-11T03:45:18.024Z,10.80
2023-04-11T03:47:44.905Z,12.30
2023-04-11T03:50:12.525Z,8.85
2023-04-11T03:52:39.422Z,12.63
2023-04-11T03:55:06.457Z,14.63
2023-04-11T03:57:33.345Z,14.45
2023-04-11T04:00:01.170Z,16.52
2023-04-11T04:02:28.092Z,10.95
2023-04-11T04:04:58.641Z,10.27
2023-04-11T04:07:26.117Z,8.80
2023-04-11T04:09:53.245Z,12.25
2023-04-11T04:12:21.558Z,9.00
2023-04-11T04:14:49.141Z,8.55
2023-04-11T04:17:16.726Z,7.93
2023-04-11T04:19:44.469Z,8.55
2023-04-11T04:22:13.320Z,7.47
2023-04-11T04:24:42.243Z,11.05
2023-04-11T04:27:09.301Z,10.07
2023-04-11T04:29:46.062Z,8.50
2023-04-11T04:32:14.780Z,8.57
2023-04-11T04:34:55.284Z,7.43
2023-04-11T04:37:24.232Z,8.23
2023-04-11T04:40:02.104Z,7.38
2023-04-11T04:42:30.190Z,10.10
2023-04-11T04:44:57.362Z,12.43
2023-04-11T04:47:30.508Z,9.57
2023-04-11T04:49:58.128Z,12.38
2023-04-11T04:52:27.353Z,10.15
2023-04-11T04:54:58.883Z,9.95
2023-04-11T04:57:29.977Z,7.97
2023-04-11T04:59:57.861Z,11.65
2023-04-11T05:02:28.082Z,10.35
2023-04-11T05:04:55.242Z,8.00
2023-04-11T05:07:22.130Z,14.15
2023-04-11T05:09:49.157Z,9.50
2023-04-11T05:12:16.189Z,7.75
2023-04-11T05:14:43.052Z,9.05
2023-04-11T05:17:09.863Z,9.65
2023-04-11T05:19:36.666Z,8.63
2023-04-11T05:22:03.517Z,9.10
2023-04-11T05:24:30.465Z,8.43
2023-04-11T05:26:58.315Z,8.93
2023-04-11T05:29:25.952Z,10.38
2023-04-11T05:31:53.255Z,11.43
2023-04-11T05:34:20.084Z,13.63
2023-04-11T05:36:47.283Z,12.10
2023-04-11T05:39:14.561Z,11.30
2023-04-11T05:41:41.982Z,10.32
2023-04-11T05:44:08.827Z,12.75
2023-04-11T05:46:37.065Z,11.68
2023-04-11T05:49:04.002Z,11.80
2023-04-11T05:51:31.423Z,13.10
2023-04-11T05:53:58.851Z,12.35
2023-04-11T05:56:26.334Z,11.85
2023-04-11T05:58:53.837Z,10.75
2023-04-11T06:01:20.952Z,10.95
2023-04-11T06:03:48.644Z,11.82
2023-04-11T06:06:16.139Z,7.78
2023-04-11T06:08:43.436Z,23.83
2023-04-11T06:11:11.301Z,19.48
2023-04-11T06:13:38.553Z,19.98
2023-04-11T06:16:06.723Z,16.58
2023-04-11T06:18:33.631Z,11.23
2023-04-11T06:21:00.464Z,12.70
2023-04-11T06:23:27.336Z,11.85
2023-04-11T06:25:54.132Z,14.77
2023-04-11T06:28:21.278Z,15.30
2023-04-11T06:30:48.439Z,15.27
2023-04-11T06:33:15.832Z,15.85
2023-04-11T06:35:43.019Z,12.27
2023-04-11T06:38:09.802Z,13.25
2023-04-11T06:40:36.732Z,14.05
2023-04-11T06:43:03.497Z,10.85
2023-04-11T06:45:30.841Z,10.10
2023-04-11T06:47:57.726Z,10.15
2023-04-11T06:50:24.575Z,17.05
2023-04-11T06:52:51.449Z,13.60
2023-04-11T06:55:18.375Z,14.43
2023-04-11T06:57:45.689Z,7.28
2023-04-11T07:00:13.659Z,8.98
2023-04-11T07:02:41.136Z,6.28
2023-04-11T07:05:11.402Z,5.93
2023-04-11T07:07:38.784Z,6.10
2023-04-11T07:10:06.979Z,7.40
2023-04-11T07:12:33.788Z,5.32
2023-04-11T07:15:01.308Z,5.32
2023-04-11T07:17:28.211Z,5.32
2023-04-11T07:19:55.054Z,7.40
2023-04-11T07:22:23.311Z,5.50
2023-04-11T07:24:55.367Z,6.95
2023-04-11T07:27:23.542Z,5.97
2023-04-11T07:29:50.667Z,5.28
2023-04-11T07:32:17.522Z,7.28
2023-04-11T07:34:44.804Z,6.63
2023-04-11T07:37:12.494Z,4.75
2023-04-11T07:39:40.582Z,5.75
2023-04-11T07:42:07.742Z,4.85
2023-04-11T07:44:35.056Z,4.80
2023-04-11T07:47:02.355Z,4.50
2023-04-11T07:49:29.228Z,5.13
2023-04-11T07:51:56.108Z,5.63
2023-04-11T07:54:25.210Z,4.40
2023-04-11T07:56:52.532Z,5.55
2023-04-11T07:59:19.524Z,4.72
2023-04-11T08:01:46.578Z,5.18
2023-04-11T08:04:13.849Z,4.90
2023-04-11T08:06:41.598Z,7.10
2023-04-11T08:09:08.402Z,4.55
2023-04-11T08:11:35.369Z,6.28
2023-04-11T08:14:02.184Z,3.80
2023-04-11T08:16:29.142Z,5.00
2023-04-11T08:18:57.381Z,5.18
2023-04-11T08:21:25.069Z,4.45
2023-04-11T08:23:51.931Z,4.88
2023-04-11T08:26:19.128Z,3.40
2023-04-11T08:28:45.964Z,3.88
2023-04-11T08:31:13.419Z,5.03
2023-04-11T08:33:40.702Z,6.72
2023-04-11T08:36:09.989Z,3.50
2023-04-11T08:38:37.871Z,4.07
2023-04-11T08:41:05.421Z,5.15
2023-04-11T08:43:36.932Z,4.82
2023-04-11T08:46:04.277Z,3.83
2023-04-11T08:48:32.367Z,4.30
2023-04-11T08:50:59.307Z,5.90
2023-04-11T08:53:27.355Z,5.13
2023-04-11T08:55:54.155Z,5.07
2023-04-11T08:58:21.423Z,4.13
2023-04-11T09:00:48.672Z,4.60
2023-04-11T09:03:17.236Z,9.48
2023-04-11T09:05:45.922Z,3.75
2023-04-11T09:08:15.438Z,4.15
2023-04-11T09:10:47.657Z,4.35
2023-04-11T09:13:34.962Z,5.00
2023-04-11T09:16:10.549Z,4.00
2023-04-11T09:18:45.050Z,4.40
2023-04-11T09:21:16.390Z,4.60
2023-04-11T09:23:43.778Z,3.42
2023-04-11T09:26:12.716Z,4.15
2023-04-11T09:28:53.451Z,3.05
2023-04-11T09:31:21.825Z,4.18
2023-04-11T09:33:56.831Z,5.20
2023-04-11T09:36:27.210Z,5.68
2023-04-11T09:38:54.841Z,4.18
2023-04-11T09:41:32.766Z,4.32
2023-04-11T09:44:00.668Z,3.60
2023-04-11T09:46:28.201Z,5.13
2023-04-11T09:48:56.512Z,3.58
2023-04-11T09:51:35.663Z,5.20
2023-04-11T09:54:04.505Z,3.15
2023-04-11T09:56:34.366Z,4.10
2023-04-11T09:59:02.982Z,3.78
2023-04-11T10:01:30.410Z,3.78
2023-04-11T10:03:58.688Z,4.65
2023-04-11T10:06:35.031Z,4.15
2023-04-11T10:09:11.061Z,3.53
2023-04-11T10:11:41.464Z,4.50
2023-04-11T10:14:08.456Z,3.55
2023-04-11T10:16:35.454Z,3.08
2023-04-11T10:19:02.179Z,3.40
2023-04-11T10:21:35.080Z,3.78
2023-04-11T10:24:18.123Z,2.80
2023-04-11T10:26:53.961Z,2.88
2023-04-11T10:29:29.889Z,3.58
2023-04-11T10:32:15.527Z,3.20
2023-04-11T10:34:54.122Z,2.85
2023-04-11T10:37:35.158Z,3.85
2023-04-11T10:40:04.678Z,3.25
2023-04-11T10:42:34.331Z,3.17
2023-04-11T10:45:26.889Z,7.13
2023-04-11T10:47:56.869Z,14.70
2023-04-11T10:50:23.744Z,3.92
2023-04-11T10:52:51.284Z,4.25
2023-04-11T10:55:18.673Z,3.60
2023-04-11T10:58:03.969Z,3.72
2023-04-11T11:00:54.346Z,2.83
2023-04-11T11:03:22.359Z,2.33
2023-04-11T11:06:01.420Z,3.78
2023-04-11T11:08:41.902Z,2.60
2023-04-11T11:11:10.642Z,2.78
2023-04-11T11:13:43.299Z,4.28
2023-04-11T11:16:18.473Z,3.42
2023-04-11T11:18:47.859Z,2.78
2023-04-11T11:21:24.623Z,2.20
2023-04-11T11:24:01.752Z,1.90
2023-04-11T11:26:41.462Z,2.10
2023-04-11T11:29:09.462Z,3.58
2023-04-11T11:31:39.264Z,4.93
2023-04-11T11:34:22.319Z,1.98
2023-04-11T11:36:51.253Z,1.88
2023-04-11T11:39:20.383Z,2.00
2023-04-11T11:41:48.655Z,2.38
2023-04-11T11:44:27.012Z,1.98
2023-04-11T11:47:10.014Z,2.40
2023-04-11T11:50:04.061Z,1.35
2023-04-11T11:52:33.092Z,2.50
2023-04-11T11:55:02.300Z,2.72
2023-04-11T11:57:29.099Z,2.20
2023-04-11T11:59:57.100Z,2.42
2023-04-11T12:02:26.245Z,2.33
2023-04-11T12:05:00.321Z,1.90
2023-04-11T12:07:36.229Z,2.08
2023-04-11T12:10:09.012Z,4.93
2023-04-11T12:12:41.031Z,3.47
2023-04-11T12:15:12.431Z,4.35
2023-04-11T12:17:40.321Z,2.03
2023-04-11T12:20:08.504Z,1.83
2023-04-11T12:22:35.647Z,2.00
2023-04-11T12:25:10.502Z,1.80
2023-04-11T12:27:38.611Z,2.17
2023-04-11T12:30:06.174Z,1.58
2023-04-11T12:32:34.191Z,2.28
2023-04-11T12:35:02.814Z,2.67
2023-04-11T12:37:30.998Z,2.17
2023-04-11T12:39:57.786Z,2.60
2023-04-11T12:42:27.136Z,1.85
2023-04-11T12:44:54.563Z,2.30
2023-04-11T12:47:21.599Z,1.90
2023-04-11T12:49:48.440Z,2.05
2023-04-11T12:52:15.657Z,2.72
2023-04-11T12:54:42.528Z,2.10
2023-04-11T12:57:10.000Z,2.30
2023-04-11T12:59:37.151Z,2.83
2023-04-11T13:02:04.153Z,3.20
2023-04-11T13:04:31.077Z,7.00
2023-04-11T13:07:01.357Z,2.88
2023-04-11T13:09:31.969Z,4.63
2023-04-11T13:11:59.704Z,4.72
2023-04-11T13:14:26.626Z,8.88
2023-04-11T13:16:54.077Z,7.53
2023-04-11T13:19:24.161Z,3.10
2023-04-11T13:21:51.137Z,2.25
2023-04-11T13:24:17.945Z,2.60
2023-04-11T13:26:45.211Z,3.05
2023-04-11T13:29:14.759Z,3.63
2023-04-11T13:31:42.109Z,2.72
2023-04-11T13:34:09.003Z,3.72
2023-04-11T13:36:35.949Z,2.97
2023-04-11T13:39:02.912Z,2.53
2023-04-11T13:41:29.865Z,2.05
2023-04-11T13:43:56.741Z,2.05
2023-04-11T13:46:23.536Z,2.25
2023-04-11T13:48:50.511Z,2.72
2023-04-11T13:51:17.557Z,2.97
2023-04-11T13:53:44.459Z,3.63
2023-04-11T13:56:11.757Z,3.50
2023-04-11T13:58:39.024Z,4.97
2023-04-11T14:01:06.731Z,4.80
2023-04-11T14:03:34.050Z,5.65
2023-04-11T14:06:01.545Z,15.65
2023-04-11T14:08:29.337Z,17.58
2023-04-11T14:10:56.472Z,15.13
2023-04-11T14:13:23.794Z,7.82
2023-04-11T14:16:01.299Z,9.40
2023-04-11T14:18:34.659Z,7.53
2023-04-11T14:21:01.900Z,11.05
2023-04-11T14:23:29.346Z,5.65
2023-04-11T14:25:56.814Z,4.45
2023-04-11T14:28:26.461Z,4.55
2023-04-11T14:30:54.794Z,3.85
2023-04-11T14:33:22.165Z,6.18
2023-04-11T14:35:50.351Z,4.18
2023-04-11T14:38:17.445Z,3.53
2023-04-11T14:40:45.552Z,3.10
2023-04-11T14:43:12.521Z,4.03
2023-04-11T14:45:39.474Z,4.25
2023-04-11T14:48:06.783Z,4.40
2023-04-11T14:50:34.290Z,4.68
2023-04-11T14:53:01.299Z,4.72
2023-04-11T14:55:28.181Z,4.13
2023-04-11T14:57:56.115Z,3.58
2023-04-11T15:00:24.835Z,3.55
2023-04-11T15:02:57.546Z,3.83
2023-04-11T15:05:25.052Z,2.95
2023-04-11T15:07:53.294Z,2.92
2023-04-11T15:10:25.073Z,3.70
2023-04-11T15:12:52.115Z,1.92
2023-04-11T15:15:19.117Z,2.72
2023-04-11T15:17:48.935Z,2.42
2023-04-11T15:20:16.975Z,4.85
2023-04-11T15:22:45.754Z,2.25
2023-04-11T15:25:15.180Z,2.70
2023-04-11T15:27:42.730Z,2.30
2023-04-11T15:30:10.512Z,2.95
2023-04-11T15:32:43.387Z,3.83
2023-04-11T15:35:10.640Z,2.58
2023-04-11T15:37:38.022Z,3.20
2023-04-11T15:40:11.578Z,2.80
2023-04-11T15:42:40.945Z,4.03
2023-04-11T15:45:08.614Z,3.25
2023-04-11T15:47:36.105Z,16.42
2023-04-11T15:50:04.672Z,9.40
2023-04-11T15:52:31.604Z,6.88
2023-04-11T15:54:58.371Z,3.75
2023-04-11T15:57:27.464Z,5.28
2023-04-11T15:59:54.307Z,3.63
2023-04-11T16:02:21.176Z,5.43
2023-04-11T16:04:50.582Z,5.43
2023-04-11T16:07:19.493Z,5.88
2023-04-11T16:09:46.612Z,8.50
2023-04-11T16:12:13.898Z,9.90
2023-04-11T16:14:41.249Z,10.00
2023-04-11T16:17:08.206Z,13.48
2023-04-11T16:19:35.119Z,14.98
2023-04-11T16:22:02.355Z,6.03
2023-04-11T16:24:29.710Z,10.25
2023-04-11T16:26:57.359Z,8.02
2023-04-11T16:29:25.347Z,8.95
2023-04-11T16:31:52.336Z,16.55
2023-04-11T16:34:19.240Z,6.68
2023-04-11T16:36:46.465Z,9.88
2023-04-11T16:39:13.708Z,11.60
2023-04-11T16:41:40.611Z,10.48
2023-04-11T16:44:13.528Z,13.20
2023-04-11T16:46:43.849Z,11.40
2023-04-11T16:49:11.096Z,10.80
2023-04-11T16:51:38.209Z,13.05
2023-04-11T16:54:09.596Z,12.50
2023-04-11T16:56:37.358Z,9.43
2023-04-11T16:59:05.040Z,10.20
2023-04-11T17:01:32.081Z,16.90
2023-04-11T17:03:59.357Z,18.92
2023-04-11T17:06:27.200Z,13.13
2023-04-11T17:08:54.371Z,13.32
2023-04-11T17:11:21.872Z,13.70
2023-04-11T17:13:49.576Z,13.40
2023-04-11T17:16:17.751Z,12.70
2023-04-11T17:18:44.970Z,12.82
2023-04-11T17:21:11.823Z,13.52
2023-04-11T17:23:42.613Z,17.55
2023-04-11T17:26:10.786Z,17.60
2023-04-11T17:28:39.624Z,30.40
2023-04-11T17:31:13.859Z,24.98
2023-04-11T17:33:41.867Z,34.78
2023-04-11T17:36:11.218Z,33.90
2023-04-11T17:38:39.182Z,35.97
2023-04-11T17:41:14.323Z,47.97
2023-04-11T17:43:42.525Z,53.15
2023-04-11T17:46:09.496Z,36.38
2023-04-11T17:48:36.978Z,41.30
2023-04-11T17:51:05.805Z,35.20
2023-04-11T17:53:33.603Z,35.22
2023-04-11T17:56:04.717Z,21.35
2023-04-11T17:58:31.922Z,19.63
2023-04-11T18:00:58.732Z,18.90
2023-04-11T18:03:26.527Z,27.23
2023-04-11T18:05:54.626Z,34.72
2023-04-11T18:08:35.440Z,34.30
2023-04-11T18:11:09.986Z,26.85
2023-04-11T18:13:36.789Z,30.27
2023-04-11T18:16:04.305Z,31.60
2023-04-11T18:18:31.284Z,24.13
2023-04-11T18:21:05.068Z,25.23
2023-04-11T18:23:34.134Z,24.15
2023-04-11T18:26:01.566Z,27.77
2023-04-11T18:28:29.084Z,29.05
2023-04-11T18:30:56.301Z,27.73
2023-04-11T18:33:23.202Z,25.00
2023-04-11T18:35:50.202Z,24.58
2023-04-11T18:38:17.718Z,24.65
2023-04-11T18:40:44.583Z,33.13
2023-04-11T18:43:11.384Z,35.53
2023-04-11T18:45:39.413Z,34.15
2023-04-11T18:48:07.298Z,29.92
2023-04-11T18:50:38.800Z,28.00
2023-04-11T18:53:09.311Z,31.70
2023-04-11T18:55:38.402Z,29.35
2023-04-11T18:58:08.532Z,23.33
2023-04-11T19:00:36.814Z,25.65
2023-04-11T19:03:05.128Z,27.55
2023-04-11T19:05:32.213Z,40.25
2023-04-11T19:08:00.272Z,61.22
2023-04-11T19:10:27.223Z,57.80
2023-04-11T19:12:53.995Z,61.00
2023-04-11T19:15:21.398Z,63.63
2023-04-11T19:17:48.434Z,54.58
2023-04-11T19:20:16.710Z,43.88
2023-04-11T19:22:43.714Z,46.97
2023-04-11T19:25:11.784Z,41.35
2023-04-11T19:27:42.557Z,32.13
2023-04-11T19:30:13.574Z,30.33
2023-04-11T19:32:43.518Z,31.05
2023-04-11T19:35:11.587Z,34.30
2023-04-11T19:37:38.707Z,39.63
2023-04-11T19:40:15.678Z,37.47
2023-04-11T19:42:44.229Z,33.55
2023-04-11T19:45:12.034Z,39.63
2023-04-11T19:47:40.906Z,44.85
2023-04-11T19:50:15.250Z,43.63
2023-04-11T19:52:43.351Z,40.30
2023-04-11T19:55:12.324Z,40.35
2023-04-11T19:57:40.113Z,39.05
2023-04-11T20:00:12.537Z,33.70
2023-04-11T20:02:44.551Z,35.58
2023-04-11T20:05:16.909Z,43.58
2023-04-11T20:07:44.456Z,35.60
2023-04-11T20:10:12.781Z,28.73
2023-04-11T20:12:39.912Z,36.17
2023-04-11T20:15:08.131Z,33.95
2023-04-11T20:17:35.420Z,25.38
2023-04-11T20:20:05.866Z,29.23
2023-04-11T20:22:33.216Z,29.42
2023-04-11T20:25:00.063Z,39.08
2023-04-11T20:27:28.299Z,47.42
2023-04-11T20:29:56.639Z,49.25
2023-04-11T20:32:24.044Z,44.60
2023-04-11T20:34:51.195Z,59.13
2023-04-11T20:37:19.414Z,41.35
2023-04-11T20:39:46.405Z,37.95
2023-04-11T20:42:13.776Z,43.80
2023-04-11T20:44:42.687Z,44.10
2023-04-11T20:47:09.632Z,49.45
2023-04-11T20:49:36.436Z,43.05
2023-04-11T20:52:03.723Z,41.75
2023-04-11T20:54:30.767Z,42.22
2023-04-11T20:56:57.981Z,34.30
2023-04-11T20:59:26.357Z,33.38
2023-04-11T21:01:53.732Z,48.00
2023-04-11T21:04:22.109Z,37.22
2023-04-11T21:06:50.605Z,31.85
2023-04-11T21:09:18.507Z,30.05
2023-04-11T21:11:45.410Z,29.48
2023-04-11T21:14:12.247Z,31.17
2023-04-11T21:16:39.948Z,34.85
2023-04-11T21:19:07.183Z,31.13
2023-04-11T21:21:34.507Z,32.78
2023-04-11T21:24:01.896Z,31.58
2023-04-11T21:26:29.243Z,31.08
2023-04-11T21:28:56.086Z,29.90
2023-04-11T21:31:22.879Z,28.30
2023-04-11T21:33:50.118Z,26.42
2023-04-11T21:36:16.962Z,29.48
2023-04-11T21:38:44.158Z,32.85
2023-04-11T21:41:11.322Z,32.88
2023-04-11T21:43:38.163Z,29.55
2023-04-11T21:46:05.424Z,26.52
2023-04-11T21:48:32.345Z,30.83
2023-04-11T21:50:59.286Z,24.65
2023-04-11T21:53:26.708Z,24.38
2023-04-11T21:55:53.936Z,26.80
2023-04-11T21:58:29.191Z,30.60
2023-04-11T22:00:56.912Z,25.90
2023-04-11T22:03:24.800Z,30.45
2023-04-11T22:05:52.356Z,23.83
2023-04-11T22:08:19.961Z,25.65
2023-04-11T22:10:48.345Z,23.73
2023-04-11T22:13:17.532Z,27.20
2023-04-11T22:15:46.053Z,26.30
2023-04-11T22:18:13.437Z,28.42
2023-04-11T22:20:44.288Z,33.67
2023-04-11T22:23:13.128Z,32.70
2023-04-11T22:25:44.331Z,34.95
2023-04-11T22:28:15.720Z,34.10
2023-04-11T22:30:44.198Z,31.92
2023-04-11T22:33:13.752Z,31.75
2023-04-11T22:35:41.113Z,26.85
2023-04-11T22:38:08.359Z,26.77
2023-04-11T22:40:35.529Z,27.77
2023-04-11T22:43:02.889Z,21.80
2023-04-11T22:45:29.691Z,19.35
2023-04-11T22:48:00.221Z,24.17
2023-04-11T22:50:27.623Z,23.42
2023-04-11T22:52:54.903Z,24.30
2023-04-11T22:55:24.761Z,25.75
2023-04-11T22:57:51.704Z,24.42
2023-04-11T23:00:19.251Z,23.02
2023-04-11T23:02:47.062Z,23.30
2023-04-11T23:05:13.973Z,20.00
2023-04-11T23:07:40.765Z,21.75
2023-04-11T23:10:09.170Z,21.75
2023-04-11T23:12:36.398Z,20.33
2023-04-11T23:15:04.311Z,30.85
2023-04-11T23:17:31.909Z,21.33
2023-04-11T23:20:01.990Z,19.42
2023-04-11T23:22:28.886Z,18.02
2023-04-11T23:24:55.798Z,16.30
2023-04-11T23:27:23.518Z,22.77
2023-04-11T23:29:52.759Z,19.23
2023-04-11T23:32:21.170Z,19.20
2023-04-11T23:34:48.716Z,16.88
2023-04-11T23:37:16.564Z,19.60
2023-04-11T23:39:43.813Z,20.73
2023-04-11T23:42:11.032Z,18.98
2023-04-11T23:44:37.852Z,25.80
2023-04-11T23:47:04.689Z,16.08
2023-04-11T23:49:31.902Z,16.10
2023-04-11T23:51:58.819Z,17.23
2023-04-11T23:54:30.426Z,16.02
2023-04-11T23:56:58.452Z,16.67
2023-04-11T23:59:25.359Z,14.70
